Impacts METAR Board
IDs:

KLAX - Los Angeles Intl, CA, US

Updated at: 0800 UTC 19 Jun 2018
Potential Impact None Slight Moderate High
Time 18/20Z 18/21Z 18/22Z 18/23Z 19/00Z 19/01Z 19/02Z 19/03Z 19/04Z 19/05Z 19/06Z 19/07Z 19/08Z
Temp69 69 68 68 68 66 65 63 63 63 62 62 61
Dewpt55 55 55 55 55 54 55 56 56 57 57 56 56
Altim30.02 30.01 30.01 30.00 29.99 29.98 29.97 29.98 29.99 30.00 30.00 29.99 29.98
VIS9 10 10 10 10 10 10 10 10 10 10 10 10
CIG-- -- -- -- -- -- -- -- -- -- -- -- --
CoverSCTSCTFEWFEWFEWFEWFEWFEWFEWFEWFEWFEWFEW
FltCatVFRVFRVFRVFRVFRVFRVFRVFRVFRVFRVFRVFRVFR
WX--------------------------
WDir240260260260270250270260250260270260260
WSpd15 14 14 14 15 13 11 11 9 11 11 8 9
WGst-- 20 20 -- -- -- -- -- -- -- -- -- --
Raw hourly METARs
KLAX 181953Z 24015KT 9SM FEW023 FEW060 SCT120 21/13 A3002 RMK AO2 SLP164 T02060128
KLAX 182053Z 26014G20KT 10SM FEW017 FEW045 SCT140 21/13 A3001 RMK AO2 SLP160 T02060128 58006
KLAX 182153Z 26014G20KT 10SM FEW010 20/13 A3001 RMK AO2 SLP160 T02000128
KLAX 182253Z 26014KT 10SM FEW010 20/13 A3000 RMK AO2 SLP158 T02000128
KLAX 182353Z 27015KT 10SM FEW015 20/13 A2999 RMK AO2 SLP154 T02000128 10211 20194 58007
KLAX 190053Z 25013KT 10SM FEW015 19/12 A2998 RMK AO2 SLP149 T01890122
KLAX 190153Z 27011KT 10SM FEW015 18/13 A2997 RMK AO2 SLP148 T01830128
KLAX 190253Z 26011KT 10SM FEW015 17/13 A2998 RMK AO2 SLP151 T01720133 55004
KLAX 190353Z 25009KT 10SM FEW010 17/13 A2999 RMK AO2 SLP155 T01720133
KLAX 190453Z 26011KT 10SM FEW010 17/14 A3000 RMK AO2 SLP158 T01720139
KLAX 190553Z 27011KT 10SM FEW010 17/14 A3000 RMK AO2 SLP155 T01670139 10200 20167 50006
KLAX 190653Z 26008KT 10SM FEW010 17/13 A2999 RMK AO2 SLP152 T01670133
KLAX 190753Z 26009KT 10SM FEW010 16/13 A2998 RMK AO2 SLP150 T01610133 402110161



Page loaded:  08:54 UTC  |   01:54 AM Pacific  |   02:54 AM Mountain  |   03:54 AM Central  |   04:54 AM Eastern

 

ADVISORIES

FORECASTS

FORECASTS

OBSERVATIONS

USER TOOLS

ABOUT US